Hauptseite
METAR-TAF:

METAR-TAF

Flughäfen :

Flughafen Gibraltar

Gibraltar, Gibraltar

Breite: 36-09N, Länge: 005-21W, Höhe: 5 m

Beobachtung

Neuester Wetterbericht von vor 36 Minuten, um 16:50 UTC
Wind 12 kt aus West
Temperatur 25°C
Luftfeuchtigkeit 57%
Luftdruck 1010 hPa
Sichtweite 10 km oder mehr
Leicht bewölkt in der Höhe von 3000 ft

METAR: LXGB 031650Z 27012KT 9999 FEW030 25/16 Q1010 RMK BLU

Zeit: 19:26 (17:26 UTC)

Prognose

Neuester Wetterbericht von vor 4 Stunden und 1 Minuten, um 13:25 UTC
Gültige Prognose vom 03 um 15 UTC bis 03 um 23 UTC
Wind 12 kt aus West
Sichtweite 10 km oder mehr
Leicht bewölkt in der Höhe von 2600 ft

TAF: LXGB 031325Z 0315/0323 26012KT 9999 FEW026

Wetterbeobachtungen und Prognosen von mehr als 4000 Flughäfen (METAR und TAF Bericht).

Die verfügbaren Stationen werden durch gelbe und rote Markierungen auf der Karte dargestellt.

Führen Sie die Maus auf sie, um den Namen der Station zu sehen.

Darauf klicken, um die Beobachtung von Wetterbeobachtungen und Prognosen zu sehen.

Um die Karte zu ändern : klicken Sie auf den grünen Tasten mit einem schwarzen Kreuz Zum Vergrößern, auf den grünen Button mit einem Gedankenstrich zu verkleinern, oder auf die grünen Pfeile für benachbarte Karten.


METAR-TAF: